createdAt,value
2018-12-09T00:01:48.755Z,20.61
2018-12-09T00:06:57.914Z,26.39
2018-12-09T00:12:07.546Z,20.04
2018-12-09T00:17:16.744Z,17.73
2018-12-09T00:22:26.104Z,21.93
2018-12-09T00:27:35.277Z,16.06
2018-12-09T00:32:44.801Z,21.42
2018-12-09T00:37:54.086Z,19.03
2018-12-09T00:43:03.522Z,17.85
2018-12-09T00:48:12.825Z,17.79
2018-12-09T00:53:22.557Z,15.63
2018-12-09T00:58:31.868Z,14.55
2018-12-09T01:03:41.408Z,18.39
2018-12-09T01:08:50.610Z,18.36
2018-12-09T01:14:00.461Z,19.44
2018-12-09T01:19:09.757Z,16.77
2018-12-09T01:24:19.255Z,18.15
2018-12-09T01:29:28.457Z,16.51
2018-12-09T01:34:37.938Z,14.14
2018-12-09T01:39:45.737Z,14.67
2018-12-09T01:45:04.457Z,16.21
2018-12-09T01:50:03.676Z,16.69
2018-12-09T01:55:13.066Z,13.86
2018-12-09T02:00:22.200Z,16.38
2018-12-09T02:05:31.755Z,12.86
2018-12-09T02:10:40.879Z,12.87
2018-12-09T02:15:50.575Z,14.34
2018-12-09T02:20:59.853Z,13.75
2018-12-09T02:26:09.101Z,13.08
2018-12-09T02:31:18.523Z,13.55
2018-12-09T02:36:27.836Z,13.51
2018-12-09T02:41:37.080Z,12.30
2018-12-09T02:46:46.758Z,15.21
2018-12-09T02:51:55.927Z,11.33
2018-12-09T02:57:04.927Z,10.47
2018-12-09T03:02:14.073Z,11.22
2018-12-09T03:07:23.798Z,14.22
2018-12-09T03:12:31.679Z,9.56
2018-12-09T03:17:41.343Z,12.77
2018-12-09T03:22:50.580Z,11.57
2018-12-09T03:27:59.891Z,10.43
2018-12-09T03:33:07.857Z,12.11
2018-12-09T03:38:17.214Z,10.38
2018-12-09T03:43:25.062Z,10.14
2018-12-09T03:48:34.465Z,12.03
2018-12-09T03:53:42.315Z,10.15
2018-12-09T03:58:51.600Z,13.86
2018-12-09T04:04:00.953Z,10.58
2018-12-09T04:09:10.805Z,9.76
2018-12-09T04:14:19.963Z,13.07
2018-12-09T04:19:29.513Z,12.07
2018-12-09T04:24:38.726Z,9.46
2018-12-09T04:29:47.754Z,10.63
2018-12-09T04:34:56.994Z,12.27
2018-12-09T04:40:08.628Z,8.60
2018-12-09T04:45:15.165Z,9.39
2018-12-09T04:50:24.750Z,11.76
2018-12-09T04:55:33.984Z,11.05
2018-12-09T05:00:43.556Z,10.51
2018-12-09T05:05:52.941Z,11.52
2018-12-09T05:11:02.792Z,9.73
2018-12-09T05:16:12.162Z,9.03
2018-12-09T05:21:21.746Z,12.16
2018-12-09T05:26:31.004Z,11.34
2018-12-09T05:31:39.110Z,12.53
2018-12-09T05:36:48.424Z,10.88
2018-12-09T05:41:57.877Z,14.01
2018-12-09T05:47:07.137Z,12.88
2018-12-09T05:52:16.480Z,14.95
2018-12-09T05:57:25.755Z,26.05
2018-12-09T06:02:35.291Z,14.49
2018-12-09T06:07:44.557Z,17.14
2018-12-09T06:12:54.258Z,20.82
2018-12-09T06:18:03.836Z,24.41
2018-12-09T06:23:13.450Z,23.75
2018-12-09T06:28:22.716Z,49.50
2018-12-09T06:33:32.244Z,67.36
2018-12-09T06:38:40.107Z,57.17
2018-12-09T06:43:48.324Z,55.79
2018-12-09T06:48:57.650Z,58.06
2018-12-09T06:54:07.357Z,39.28
2018-12-09T06:59:15.260Z,41.71
2018-12-09T07:04:25.257Z,33.34
2018-12-09T07:09:24.420Z,49.07
2018-12-09T07:14:34.196Z,34.56
2018-12-09T07:19:43.737Z,33.18
2018-12-09T07:24:53.521Z,35.13
2018-12-09T07:30:02.988Z,30.32
2018-12-09T07:35:12.571Z,40.97
2018-12-09T07:40:21.667Z,47.26
2018-12-09T07:45:32.324Z,40.26
2018-12-09T07:50:31.535Z,31.94
2018-12-09T07:55:40.982Z,35.00
2018-12-09T08:00:50.289Z,39.63
2018-12-09T08:05:59.773Z,33.90
2018-12-09T08:11:08.963Z,31.36
2018-12-09T08:16:18.486Z,27.27
2018-12-09T08:21:27.669Z,39.55
2018-12-09T08:26:37.207Z,30.81
2018-12-09T08:31:46.361Z,31.99
2018-12-09T08:36:55.952Z,31.16
2018-12-09T08:42:05.089Z,27.38
2018-12-09T08:47:14.439Z,29.22
2018-12-09T08:52:22.177Z,37.40
2018-12-09T08:57:31.790Z,34.18
2018-12-09T09:02:41.021Z,34.43
2018-12-09T09:07:50.435Z,24.77
2018-12-09T09:12:59.583Z,10.59
2018-12-09T09:18:08.974Z,10.30
2018-12-09T09:23:18.166Z,11.94
2018-12-09T09:28:27.814Z,18.54
2018-12-09T09:33:37.167Z,13.65
2018-12-09T09:38:46.486Z,13.31
2018-12-09T09:43:55.934Z,15.20
2018-12-09T09:49:05.324Z,10.92
2018-12-09T09:54:14.498Z,13.48
2018-12-09T09:59:24.101Z,19.31
2018-12-09T10:04:33.382Z,11.58
2018-12-09T10:09:42.865Z,15.56
2018-12-09T10:14:56.909Z,7.07
2018-12-09T10:19:54.702Z,12.33
2018-12-09T10:25:03.885Z,14.31
2018-12-09T10:30:13.413Z,6.80
2018-12-09T10:35:22.639Z,12.17
2018-12-09T10:40:31.866Z,16.32
2018-12-09T10:45:41.140Z,20.04
2018-12-09T10:50:50.526Z,15.36
2018-12-09T10:55:59.794Z,21.90
2018-12-09T11:01:07.977Z,20.25
2018-12-09T11:06:17.193Z,25.17
2018-12-09T11:11:26.534Z,26.23
2018-12-09T11:16:36.113Z,25.62
2018-12-09T11:21:45.688Z,24.70
2018-12-09T11:26:54.981Z,27.35
2018-12-09T11:32:04.684Z,23.80
2018-12-09T11:37:13.829Z,29.03
2018-12-09T11:42:23.240Z,28.56
2018-12-09T11:47:32.399Z,36.40
2018-12-09T11:52:41.753Z,35.58
2018-12-09T11:57:50.975Z,44.40
2018-12-09T12:03:00.433Z,34.06
2018-12-09T12:08:09.613Z,26.91
2018-12-09T12:13:19.035Z,28.88
2018-12-09T12:18:28.618Z,22.98
2018-12-09T12:23:38.017Z,25.67
2018-12-09T12:28:47.162Z,26.85
2018-12-09T12:33:57.029Z,26.63
2018-12-09T12:39:06.219Z,45.99
2018-12-09T12:44:15.976Z,26.55
2018-12-09T12:49:25.166Z,30.42
2018-12-09T12:54:34.570Z,24.25
2018-12-09T12:59:44.569Z,30.10
2018-12-09T13:04:52.811Z,22.25
2018-12-09T13:10:02.089Z,22.98
2018-12-09T13:15:11.607Z,18.41
2018-12-09T13:20:20.939Z,21.12
2018-12-09T13:25:30.574Z,21.06
2018-12-09T13:30:39.714Z,21.57
2018-12-09T13:35:49.537Z,22.25
2018-12-09T13:40:58.755Z,21.66
2018-12-09T13:46:08.635Z,17.64
2018-12-09T13:51:17.897Z,17.53
2018-12-09T13:56:27.364Z,16.32
2018-12-09T14:01:36.464Z,15.45
2018-12-09T14:06:45.785Z,14.55
2018-12-09T14:11:54.959Z,16.06
2018-12-09T14:17:04.418Z,15.40
2018-12-09T14:22:15.683Z,22.92
2018-12-09T14:27:23.327Z,23.71
2018-12-09T14:32:29.743Z,27.06
2018-12-09T14:37:39.231Z,28.32
2018-12-09T14:42:48.518Z,20.98
2018-12-09T14:47:57.829Z,69.71
2018-12-09T14:53:06.956Z,53.96
2018-12-09T14:55:04.351Z,21.89
2018-12-09T15:00:03.568Z,27.38
2018-12-09T15:05:12.734Z,31.02
2018-12-09T15:10:22.454Z,31.81
2018-12-09T15:15:31.642Z,30.95
2018-12-09T15:20:41.026Z,32.03
2018-12-09T15:25:50.335Z,29.05
2018-12-09T15:30:59.679Z,32.21
2018-12-09T15:36:08.879Z,34.49
2018-12-09T15:41:18.428Z,31.31
2018-12-09T15:46:27.896Z,33.74
2018-12-09T15:51:37.244Z,33.93
2018-12-09T15:56:46.436Z,31.39
2018-12-09T16:01:55.885Z,32.45
2018-12-09T16:07:05.021Z,29.65
2018-12-09T16:12:14.396Z,28.94
2018-12-09T16:17:23.558Z,32.28
2018-12-09T16:22:32.844Z,32.86
2018-12-09T16:27:42.297Z,32.31
2018-12-09T16:32:52.107Z,32.80
2018-12-09T16:38:01.352Z,35.30
2018-12-09T16:43:11.806Z,32.51
2018-12-09T16:48:19.606Z,33.98
2018-12-09T16:53:29.228Z,32.76
2018-12-09T16:58:38.460Z,33.91
2018-12-09T17:03:48.029Z,30.67
2018-12-09T17:09:00.379Z,36.10
2018-12-09T17:14:05.688Z,37.07
2018-12-09T17:19:37.770Z,33.35
2018-12-09T17:24:07.208Z,38.69
2018-12-09T17:29:18.031Z,46.98
2018-12-09T17:39:36.478Z,63.88
2018-12-09T17:44:16.077Z,54.67
2018-12-09T17:49:25.223Z,52.35
2018-12-09T17:54:34.572Z,56.22
2018-12-09T17:59:42.225Z,51.54
2018-12-09T18:04:51.656Z,55.96
2018-12-09T18:10:00.770Z,51.72
2018-12-09T18:15:10.219Z,50.57
2018-12-09T18:20:19.420Z,47.84
2018-12-09T18:25:28.776Z,49.00
2018-12-09T18:30:38.079Z,48.95
2018-12-09T18:35:47.510Z,48.62
2018-12-09T18:40:56.641Z,50.02
2018-12-09T18:46:06.161Z,50.30
2018-12-09T18:51:15.332Z,46.47
2018-12-09T18:54:01.211Z,72.43
2018-12-09T18:58:59.173Z,31.79
2018-12-09T19:04:08.443Z,30.38
2018-12-09T19:09:17.786Z,27.30
2018-12-09T19:14:26.951Z,24.44
2018-12-09T19:19:36.257Z,21.57
2018-12-09T19:24:45.430Z,22.79
2018-12-09T19:31:06.578Z,21.23
2018-12-09T19:36:04.191Z,24.31
2018-12-09T19:41:13.617Z,21.11
2018-12-09T19:46:22.937Z,20.62
2018-12-09T19:51:32.316Z,18.37
2018-12-09T19:56:41.430Z,17.35
2018-12-09T20:01:51.075Z,18.30
2018-12-09T20:07:00.200Z,22.07
2018-12-09T20:12:09.797Z,21.24
2018-12-09T20:17:17.545Z,18.43
2018-12-09T20:22:27.038Z,20.71
2018-12-09T20:27:36.176Z,17.78
2018-12-09T20:32:46.028Z,16.98
2018-12-09T20:37:55.252Z,16.92
2018-12-09T20:43:04.844Z,17.15
2018-12-09T20:48:14.254Z,19.06
2018-12-09T20:53:23.705Z,17.22
2018-12-09T20:58:32.792Z,16.01
2018-12-09T21:03:42.185Z,16.33
2018-12-09T21:08:51.366Z,15.38
2018-12-09T21:14:00.823Z,15.82
2018-12-09T21:19:09.915Z,18.78
2018-12-09T21:24:25.815Z,23.43
2018-12-09T21:29:27.921Z,20.02
2018-12-09T21:34:36.136Z,24.35
2018-12-09T21:39:45.347Z,22.68
2018-12-09T21:44:54.664Z,26.00
2018-12-09T21:50:02.515Z,18.92
2018-12-09T21:55:11.877Z,19.10
2018-12-09T22:00:21.002Z,21.65
2018-12-09T22:05:30.777Z,22.12
2018-12-09T22:10:40.044Z,21.39
2018-12-09T22:15:51.044Z,20.03
2018-12-09T22:20:58.114Z,21.00
2018-12-09T22:26:07.449Z,19.81
2018-12-09T22:31:16.614Z,21.59
2018-12-09T22:36:26.261Z,17.61
2018-12-09T22:41:35.553Z,21.89
2018-12-09T22:46:44.737Z,17.21
2018-12-09T22:51:53.906Z,18.58
2018-12-09T22:57:03.552Z,19.61
2018-12-09T23:02:12.665Z,19.03
2018-12-09T23:07:22.507Z,17.49
2018-12-09T23:12:31.818Z,16.46
2018-12-09T23:17:41.275Z,15.86
2018-12-09T23:22:50.412Z,20.54
2018-12-09T23:28:00.005Z,15.73
2018-12-09T23:33:09.104Z,15.58
2018-12-09T23:38:17.283Z,15.39
2018-12-09T23:43:26.594Z,12.71
2018-12-09T23:48:35.989Z,14.23
2018-12-09T23:53:45.185Z,15.74
2018-12-09T23:58:53.028Z,14.35
